Time;durP1;ratioP1;P1;durP2;ratioP2;P2;SDS_P1;SDS_P2;PMS_P1;PMS_P2;Temp;Humidity;BMP_temperature;BMP_pressure;BME280_temperature;BME280_humidity;BME280_pressure;Samples;Min_cycle;Max_cycle;Signal;HPM_P1;HPM_P2
2022/05/21 00:00:59;;;;;;;2.55;1.13;;;15.10;70.20;;;;;;4982982;28;20671;-71
2022/05/21 00:03:25;;;;;;;2.33;1.15;;;15.10;70.70;;;;;;4983007;28;20190;-71
2022/05/21 00:05:51;;;;;;;3.72;1.17;;;15.00;70.70;;;;;;4981666;28;20659;-71
2022/05/21 00:08:17;;;;;;;2.05;1.15;;;15.00;70.80;;;;;;4981884;28;20244;-71
2022/05/21 00:10:43;;;;;;;1.13;1.02;;;14.90;71.30;;;;;;4967596;28;20245;-71
2022/05/21 00:13:09;;;;;;;0.63;0.63;;;14.90;71.70;;;;;;4984644;28;20184;-71
2022/05/21 00:15:36;;;;;;;1.00;0.90;;;14.80;71.80;;;;;;4983699;28;20268;-72
2022/05/21 00:18:03;;;;;;;1.08;1.00;;;14.80;71.00;;;;;;4983828;28;20621;-71
2022/05/21 00:20:47;;;;;;;1.13;1.13;;;14.70;71.30;;;;;;4985647;28;20229;-71
2022/05/21 00:23:27;;;;;;;7.15;0.77;;;14.70;71.50;;;;;;4985213;28;20198;-72
2022/05/21 00:25:59;;;;;;;1.08;1.08;;;14.60;72.30;;;;;;4984824;28;20280;-72
2022/05/21 00:28:25;;;;;;;1.58;1.00;;;14.60;72.30;;;;;;4984952;28;20193;-71
2022/05/21 00:30:51;;;;;;;3.65;0.90;;;14.60;72.20;;;;;;4983605;28;20236;-71
2022/05/21 00:33:17;;;;;;;0.90;0.90;;;14.50;73.10;;;;;;4988443;28;20189;-71
2022/05/21 00:35:43;;;;;;;0.55;0.55;;;14.40;72.70;;;;;;5013563;28;20185;-71
2022/05/21 00:38:10;;;;;;;0.77;0.77;;;14.40;72.10;;;;;;5015230;28;20231;-72
2022/05/21 00:40:37;;;;;;;0.57;0.57;;;14.30;72.20;;;;;;5013045;28;20666;-71
2022/05/21 00:43:03;;;;;;;0.98;0.98;;;14.30;72.10;;;;;;5016756;28;20231;-71
2022/05/21 00:45:30;;;;;;;0.98;0.98;;;14.20;72.70;;;;;;5011158;28;20283;-72
2022/05/21 00:47:56;;;;;;;0.68;0.68;;;14.20;72.20;;;;;;5011063;28;20184;-71
2022/05/21 00:50:28;;;;;;;8.75;1.02;;;14.10;72.20;;;;;;5013881;28;20249;-70
2022/05/21 00:52:54;;;;;;;0.80;0.80;;;14.10;72.60;;;;;;5031434;28;20678;-71
2022/05/21 00:55:29;;;;;;;1.35;1.02;;;14.10;72.20;;;;;;5012839;28;20180;-71
2022/05/21 01:00:55;;;;;;;0.52;0.52;;;14.00;72.80;;;;;;5013712;28;21612;-72
2022/05/21 01:03:22;;;;;;;0.50;0.50;;;14.00;72.70;;;;;;5010091;28;20268;-72
2022/05/21 01:05:48;;;;;;;1.02;1.02;;;14.00;72.90;;;;;;5016728;28;20177;-71
2022/05/21 01:08:15;;;;;;;5.57;0.70;;;14.00;72.80;;;;;;5015177;28;20185;-71
2022/05/21 01:10:47;;;;;;;1.00;0.50;;;14.00;73.10;;;;;;5009119;28;20511;-71
2022/05/21 01:13:18;;;;;;;0.70;0.70;;;14.00;73.20;;;;;;5015601;28;20192;-71
2022/05/21 01:15:47;;;;;;;1.50;0.82;;;13.90;73.20;;;;;;5015035;28;20184;-71
2022/05/21 01:18:13;;;;;;;0.77;0.77;;;13.90;73.30;;;;;;5015410;28;20204;-72
2022/05/21 01:20:47;;;;;;;0.60;0.60;;;13.90;73.50;;;;;;5010156;28;20235;-71
2022/05/21 01:23:15;;;;;;;0.85;0.73;;;13.90;74.40;;;;;;5044344;28;20187;-72
2022/05/21 01:25:43;;;;;;;3.13;0.88;;;13.90;74.50;;;;;;5013397;28;20189;-72
2022/05/21 01:28:14;;;;;;;1.65;1.55;;;13.80;73.90;;;;;;5011638;28;20238;-71
2022/05/21 01:30:43;;;;;;;0.77;0.77;;;13.80;74.30;;;;;;5011871;28;20196;-72
2022/05/21 01:33:13;;;;;;;0.82;0.82;;;13.70;73.80;;;;;;5014840;28;20176;-71
2022/05/21 01:35:41;;;;;;;1.00;0.90;;;13.70;74.30;;;;;;5006440;28;20283;-71
2022/05/21 01:38:07;;;;;;;1.40;1.25;;;13.60;75.30;;;;;;5016463;28;20184;-71
2022/05/21 01:40:34;;;;;;;0.60;0.60;;;13.60;75.20;;;;;;5015900;28;20630;-71
2022/05/21 01:45:44;;;;;;;0.85;0.85;;;13.50;75.20;;;;;;5009607;28;20276;-72
2022/05/21 01:48:10;;;;;;;1.60;0.80;;;13.50;75.50;;;;;;5042742;28;20192;-72
2022/05/21 01:50:38;;;;;;;2.50;1.00;;;13.40;75.60;;;;;;5012154;28;20250;-72
2022/05/21 01:53:04;;;;;;;0.95;0.60;;;13.40;75.90;;;;;;5027050;28;20220;-73
2022/05/21 01:55:30;;;;;;;2.05;0.73;;;13.40;75.20;;;;;;5012289;28;20608;-72
2022/05/21 01:57:56;;;;;;;0.80;0.70;;;13.30;76.20;;;;;;5011370;28;20601;-71
2022/05/21 02:00:22;;;;;;;1.70;0.90;;;13.30;76.50;;;;;;5013217;28;20215;-71
2022/05/21 02:02:48;;;;;;;2.35;1.02;;;13.30;77.20;;;;;;5011676;28;20218;-71
2022/05/21 02:05:14;;;;;;;2.63;1.30;;;;;;;;;;5011612;28;20189;-72
2022/05/21 02:07:41;;;;;;;0.65;0.65;;;13.10;78.20;;;;;;5009620;28;20256;-71
2022/05/21 02:10:07;;;;;;;0.77;0.77;;;13.10;78.00;;;;;;5010424;28;20191;-71
2022/05/21 02:12:33;;;;;;;0.88;0.88;;;13.00;78.40;;;;;;5012996;28;20189;-71
2022/05/21 02:14:59;;;;;;;1.20;1.10;;;12.90;78.20;;;;;;5012077;28;20963;-70
2022/05/21 02:17:25;;;;;;;1.10;1.10;;;12.90;78.90;;;;;;5014568;28;20200;-71
2022/05/21 02:19:50;;;;;;;1.30;0.80;;;12.80;78.90;;;;;;5010062;28;20651;-71
2022/05/21 02:22:16;;;;;;;0.73;0.73;;;12.70;78.10;;;;;;5013396;28;20196;-71
2022/05/21 02:24:43;;;;;;;0.73;0.73;;;12.60;77.60;;;;;;5014111;28;20212;-71
2022/05/21 02:27:14;;;;;;;1.83;0.73;;;12.50;77.00;;;;;;5010119;28;20180;-71
2022/05/21 02:29:41;;;;;;;0.80;0.70;;;12.50;77.00;;;;;;5009833;28;20180;-71
2022/05/21 02:32:08;;;;;;;0.60;0.60;;;12.50;77.00;;;;;;5008339;28;21040;-71
2022/05/21 02:34:34;;;;;;;1.38;0.60;;;12.40;77.20;;;;;;5010240;28;20263;-71
2022/05/21 02:39:44;;;;;;;0.95;0.80;;;12.40;76.80;;;;;;5015741;28;20227;-70
2022/05/21 02:44:55;;;;;;;1.17;0.50;;;12.40;78.80;;;;;;5009362;28;20720;-71
2022/05/21 02:47:22;;;;;;;0.50;0.50;;;12.40;78.90;;;;;;5010193;28;20199;-71
2022/05/21 02:49:48;;;;;;;1.33;0.75;;;;;;;;;;5010934;28;20295;-71
2022/05/21 02:52:15;;;;;;;0.95;0.63;;;12.30;78.60;;;;;;5012290;28;20227;-70
2022/05/21 02:54:41;;;;;;;0.80;0.60;;;12.30;78.20;;;;;;5010261;28;20555;-70
2022/05/21 02:57:09;;;;;;;0.57;0.57;;;12.30;78.20;;;;;;5012198;28;20264;-70
2022/05/21 02:59:36;;;;;;;0.75;0.75;;;12.30;78.70;;;;;;5011821;28;20658;-70
2022/05/21 03:02:03;;;;;;;0.95;0.63;;;12.30;79.00;;;;;;5011786;28;20208;-70
2022/05/21 03:04:29;;;;;;;0.60;0.60;;;12.20;78.60;;;;;;5011298;28;20627;-70
2022/05/21 03:06:55;;;;;;;0.52;0.52;;;;;;;;;;5014872;28;20180;-70
2022/05/21 03:12:05;;;;;;;0.70;0.50;;;12.20;78.30;;;;;;5012841;28;20280;-71
2022/05/21 03:14:31;;;;;;;0.77;0.75;;;12.20;78.80;;;;;;5010884;28;20272;-71
2022/05/21 03:16:59;;;;;;;18.70;1.02;;;12.20;80.40;;;;;;5008959;28;20181;-69
2022/05/21 03:19:30;;;;;;;0.57;0.57;;;12.20;79.70;;;;;;5047336;28;20247;-71
2022/05/21 03:21:57;;;;;;;1.65;0.80;;;12.10;80.20;;;;;;5011583;28;21062;-71
2022/05/21 03:24:23;;;;;;;0.47;0.47;;;12.10;79.70;;;;;;5012822;28;20327;-71
2022/05/21 03:26:49;;;;;;;0.93;0.93;;;12.10;79.20;;;;;;5013047;28;20375;-71
2022/05/21 03:29:14;;;;;;;0.57;0.52;;;12.10;79.30;;;;;;5008736;28;20678;-71
2022/05/21 03:31:40;;;;;;;0.60;0.60;;;;;;;;;;5014724;28;20216;-71
2022/05/21 03:34:06;;;;;;;0.75;0.47;;;12.00;79.10;;;;;;5007948;28;20589;-71
2022/05/21 03:36:32;;;;;;;0.60;0.60;;;;;;;;;;5014523;28;20193;-71
2022/05/21 03:38:59;;;;;;;0.60;0.60;;;12.00;80.30;;;;;;5011381;28;20649;-71
2022/05/21 03:41:26;;;;;;;0.50;0.50;;;12.00;80.60;;;;;;5043530;28;20213;-72
2022/05/21 03:43:52;;;;;;;0.50;0.50;;;12.00;80.20;;;;;;5012527;28;20267;-71
2022/05/21 03:46:19;;;;;;;1.15;0.50;;;11.90;79.50;;;;;;5011989;28;20665;-71
2022/05/21 03:48:45;;;;;;;0.63;0.63;;;11.90;79.20;;;;;;5014664;28;20879;-71
2022/05/21 03:51:12;;;;;;;2.23;0.80;;;11.90;79.10;;;;;;5016933;28;20184;-71
2022/05/21 03:53:38;;;;;;;0.60;0.60;;;11.90;78.90;;;;;;5017139;28;20267;-71
2022/05/21 03:56:05;;;;;;;0.60;0.60;;;11.90;78.80;;;;;;5019534;28;20287;-72
2022/05/21 03:58:32;;;;;;;0.60;0.60;;;12.00;78.80;;;;;;5011823;28;20255;-70
2022/05/21 04:00:58;;;;;;;0.50;0.50;;;12.00;79.00;;;;;;5017373;28;20220;-72
2022/05/21 04:03:24;;;;;;;0.60;0.60;;;12.00;79.10;;;;;;5018659;28;20190;-71
2022/05/21 04:05:53;;;;;;;0.63;0.60;;;12.10;79.20;;;;;;5016093;28;20185;-71
2022/05/21 04:08:19;;;;;;;1.10;0.60;;;12.10;79.30;;;;;;5013713;28;20193;-71
2022/05/21 04:10:47;;;;;;;0.60;0.60;;;12.20;80.50;;;;;;5015903;28;20763;-70
2022/05/21 04:13:12;;;;;;;0.80;0.77;;;12.20;80.20;;;;;;5013951;28;20189;-70
2022/05/21 04:15:38;;;;;;;1.40;0.70;;;12.20;80.90;;;;;;5015765;28;20181;-71
2022/05/21 04:18:04;;;;;;;0.88;0.88;;;12.30;80.50;;;;;;5019077;28;20196;-71
2022/05/21 04:20:30;;;;;;;0.90;0.90;;;12.30;80.60;;;;;;5014187;28;20305;-71
2022/05/21 04:22:56;;;;;;;1.45;1.00;;;12.30;80.70;;;;;;5016995;28;20265;-71
2022/05/21 04:25:22;;;;;;;0.73;0.73;;;12.40;80.40;;;;;;5012096;28;20192;-71
2022/05/21 04:27:48;;;;;;;2.03;1.00;;;12.40;79.80;;;;;;5013991;28;20243;-71
2022/05/21 04:30:25;;;;;;;1.17;0.65;;;12.30;79.70;;;;;;5017129;28;20666;-71
2022/05/21 04:32:51;;;;;;;0.60;0.60;;;12.40;79.50;;;;;;5029448;28;20191;-71
2022/05/21 04:35:18;;;;;;;1.17;1.10;;;12.50;80.80;;;;;;5020638;28;20265;-71
2022/05/21 04:37:44;;;;;;;3.50;0.70;;;12.50;80.30;;;;;;5013937;28;20272;-71
2022/05/21 04:40:17;;;;;;;1.13;1.13;;;12.50;80.00;;;;;;5020126;28;20222;-71
2022/05/21 04:42:43;;;;;;;3.95;0.80;;;12.50;79.70;;;;;;5016533;28;20243;-71
2022/05/21 04:45:10;;;;;;;0.93;0.93;;;12.60;79.90;;;;;;5019388;28;20255;-71
2022/05/21 04:47:36;;;;;;;1.27;1.25;;;12.60;80.30;;;;;;5014358;28;20181;-71
2022/05/21 04:50:04;;;;;;;1.73;1.15;;;12.70;80.00;;;;;;5019331;28;20701;-71
2022/05/21 04:52:36;;;;;;;0.60;0.60;;;12.70;80.00;;;;;;5016594;28;20199;-71
2022/05/21 04:55:07;;;;;;;0.70;0.70;;;12.80;80.10;;;;;;5016445;28;20566;-71
2022/05/21 04:57:36;;;;;;;1.48;1.00;;;12.80;80.10;;;;;;5015477;28;20238;-71
2022/05/21 05:00:03;;;;;;;2.05;0.93;;;12.90;80.70;;;;;;5018339;28;20223;-71
2022/05/21 05:02:28;;;;;;;1.05;1.05;;;13.00;80.00;;;;;;5041070;28;20188;-71
2022/05/21 05:04:54;;;;;;;0.85;0.80;;;;;;;;;;5017756;28;20274;-72
2022/05/21 05:07:22;;;;;;;0.80;0.75;;;13.00;79.50;;;;;;5018366;28;20180;-72
2022/05/21 05:09:48;;;;;;;1.95;0.95;;;13.00;79.40;;;;;;5014435;28;20702;-72
2022/05/21 05:12:16;;;;;;;1.00;0.90;;;13.00;79.10;;;;;;5015062;28;20195;-71
2022/05/21 05:14:42;;;;;;;0.93;0.93;;;13.10;78.80;;;;;;5026886;28;20185;-70
2022/05/21 05:17:12;;;;;;;2.13;0.98;;;13.20;78.60;;;;;;5027350;28;20621;-72
2022/05/21 05:19:38;;;;;;;1.38;1.10;;;13.30;78.60;;;;;;5012790;28;20189;-72
2022/05/21 05:22:04;;;;;;;1.10;1.05;;;13.30;78.60;;;;;;5014349;28;20286;-71
2022/05/21 05:24:30;;;;;;;0.85;0.85;;;13.40;79.20;;;;;;5014890;28;20209;-71
2022/05/21 05:26:56;;;;;;;1.85;1.75;;;13.40;78.70;;;;;;5010781;28;20260;-70
2022/05/21 05:29:22;;;;;;;1.17;1.17;;;13.50;78.70;;;;;;5011193;28;20188;-70
2022/05/21 05:31:48;;;;;;;0.95;0.95;;;;;;;;;;5010199;28;20582;-71
2022/05/21 05:34:14;;;;;;;4.00;1.38;;;;;;;;;;5013946;28;20208;-71
2022/05/21 05:36:40;;;;;;;1.25;1.25;;;13.70;78.40;;;;;;5009484;28;20181;-71
2022/05/21 05:39:06;;;;;;;1.10;1.10;;;;;;;;;;5013004;28;20188;-71
2022/05/21 05:41:32;;;;;;;1.10;1.10;;;;;;;;;;5011354;28;20212;-71
2022/05/21 05:43:58;;;;;;;7.80;1.02;;;13.90;78.00;;;;;;5015153;28;20176;-72
2022/05/21 05:46:23;;;;;;;1.38;1.27;;;13.90;77.70;;;;;;5014128;28;20181;-71
2022/05/21 05:48:49;;;;;;;0.90;0.90;;;14.00;78.00;;;;;;5011804;28;20913;-71
2022/05/21 05:51:17;;;;;;;3.33;1.13;;;14.10;77.50;;;;;;5013767;28;20263;-72
2022/05/21 05:53:43;;;;;;;1.10;1.00;;;14.10;77.20;;;;;;5012302;28;20248;-71
2022/05/21 05:56:09;;;;;;;4.13;1.25;;;14.20;77.50;;;;;;5010244;28;20192;-70
2022/05/21 06:01:20;;;;;;;1.88;1.33;;;14.30;77.00;;;;;;5010378;28;20357;-70
2022/05/21 06:03:47;;;;;;;1.63;1.48;;;14.40;77.00;;;;;;5041657;28;20212;-71
2022/05/21 06:06:13;;;;;;;1.77;1.67;;;14.50;76.80;;;;;;5015071;28;20334;-71
2022/05/21 06:08:39;;;;;;;0.85;0.85;;;;;;;;;;5009296;28;20742;-71
2022/05/21 06:11:05;;;;;;;2.05;1.58;;;14.60;76.30;;;;;;5012302;28;20238;-70
2022/05/21 06:13:31;;;;;;;4.65;1.10;;;;;;;;;;5015789;28;20192;-69
2022/05/21 06:15:59;;;;;;;1.00;1.00;;;14.70;75.60;;;;;;5013898;28;20268;-70
2022/05/21 06:18:26;;;;;;;1.10;1.05;;;14.80;75.30;;;;;;5010536;28;20192;-71
2022/05/21 06:20:51;;;;;;;0.90;0.90;;;14.90;75.40;;;;;;5011103;28;20223;-70
2022/05/21 06:23:20;;;;;;;1.75;1.33;;;15.00;75.70;;;;;;5013423;28;20189;-72
2022/05/21 06:25:47;;;;;;;2.97;1.20;;;15.10;75.40;;;;;;5012795;28;20207;-71
2022/05/21 06:28:13;;;;;;;1.23;1.23;;;15.10;75.60;;;;;;5013876;28;20189;-71
2022/05/21 06:30:40;;;;;;;1.27;1.27;;;15.20;75.30;;;;;;5011244;28;20629;-71
2022/05/21 06:33:18;;;;;;;2.30;1.20;;;15.30;75.30;;;;;;5011680;28;20207;-71
2022/05/21 06:35:45;;;;;;;3.55;1.48;;;15.40;75.00;;;;;;5007966;28;20193;-71
2022/05/21 06:38:11;;;;;;;2.75;1.25;;;15.40;74.90;;;;;;5013995;28;20211;-71
2022/05/21 06:40:36;;;;;;;0.95;0.95;;;15.50;74.80;;;;;;5012901;28;20266;-71
2022/05/21 06:43:02;;;;;;;2.78;1.05;;;15.60;74.60;;;;;;5013076;28;20240;-71
2022/05/21 06:45:30;;;;;;;1.85;1.02;;;15.70;74.20;;;;;;5011870;28;20214;-71
2022/05/21 06:48:08;;;;;;;2.70;1.00;;;15.80;73.70;;;;;;5016097;28;20230;-72
2022/05/21 06:50:37;;;;;;;0.88;0.85;;;15.80;73.60;;;;;;5014893;28;20277;-72
2022/05/21 06:53:02;;;;;;;1.38;0.75;;;15.90;73.50;;;;;;5014625;28;20180;-72
2022/05/21 06:55:28;;;;;;;4.53;1.20;;;16.00;73.30;;;;;;5015644;28;20259;-72
2022/05/21 06:57:54;;;;;;;2.28;1.25;;;;;;;;;;5013861;28;20191;-72
2022/05/21 07:00:22;;;;;;;1.15;1.15;;;16.10;72.50;;;;;;5012206;28;20189;-71
2022/05/21 07:02:53;;;;;;;0.85;0.85;;;16.20;72.60;;;;;;5011693;28;20208;-71
2022/05/21 07:08:13;;;;;;;1.13;1.13;;;16.40;72.00;;;;;;5011256;28;20245;-71
2022/05/21 07:10:39;;;;;;;0.90;0.90;;;16.60;72.00;;;;;;5011732;28;20276;-72
2022/05/21 07:13:05;;;;;;;1.00;1.00;;;16.70;72.20;;;;;;5011581;28;20331;-72
2022/05/21 07:15:31;;;;;;;1.95;1.30;;;;;;;;;;5010586;28;20214;-71
2022/05/21 07:18:01;;;;;;;5.00;1.05;;;16.80;71.50;;;;;;5009674;28;20205;-71
2022/05/21 07:20:28;;;;;;;5.20;1.50;;;16.90;70.50;;;;;;5014920;28;20263;-72
2022/05/21 07:22:54;;;;;;;1.25;0.90;;;17.10;70.10;;;;;;5014893;28;20184;-71
2022/05/21 07:25:24;;;;;;;1.00;1.00;;;17.10;69.60;;;;;;5017983;28;20267;-71
2022/05/21 07:27:50;;;;;;;0.73;0.73;;;17.20;69.50;;;;;;5016082;28;20225;-71
2022/05/21 07:30:17;;;;;;;1.25;1.20;;;17.30;69.20;;;;;;5011861;28;20188;-70
2022/05/21 07:32:44;;;;;;;1.75;1.00;;;17.40;69.60;;;;;;5014915;28;20193;-73
2022/05/21 07:35:13;;;;;;;1.02;1.02;;;17.50;69.30;;;;;;5015505;28;20207;-72
2022/05/21 07:37:40;;;;;;;0.80;0.70;;;17.60;69.60;;;;;;5010599;28;20268;-71
2022/05/21 07:40:07;;;;;;;2.45;1.38;;;17.70;69.50;;;;;;5012026;28;20185;-72
2022/05/21 07:42:33;;;;;;;1.40;1.30;;;17.70;69.50;;;;;;5015527;28;20193;-71
2022/05/21 07:44:59;;;;;;;1.00;0.90;;;;;;;;;;5011041;28;20196;-71
2022/05/21 07:47:25;;;;;;;0.98;0.98;;;17.90;69.60;;;;;;5015027;28;20578;-71
2022/05/21 07:49:56;;;;;;;1.15;1.15;;;18.00;69.30;;;;;;5014148;28;20196;-71
2022/05/21 07:52:31;;;;;;;1.40;1.30;;;18.10;69.00;;;;;;5047738;28;20193;-72
2022/05/21 07:54:57;;;;;;;0.90;0.90;;;18.20;68.40;;;;;;5012550;28;20576;-71
2022/05/21 07:57:23;;;;;;;1.13;1.13;;;18.30;68.00;;;;;;5011299;28;20211;-72
2022/05/21 07:59:50;;;;;;;1.50;1.40;;;18.30;67.50;;;;;;5015714;28;20185;-72
2022/05/21 08:02:17;;;;;;;0.88;0.88;;;18.40;67.30;;;;;;5012804;28;21362;-72
2022/05/21 08:04:45;;;;;;;1.08;1.08;;;18.50;67.50;;;;;;5014497;28;20196;-72
2022/05/21 08:07:12;;;;;;;0.95;0.95;;;18.50;67.80;;;;;;5015178;28;20512;-72
2022/05/21 08:09:37;;;;;;;1.45;1.35;;;18.60;67.10;;;;;;5012343;28;20188;-72
2022/05/21 08:12:05;;;;;;;1.92;1.83;;;18.70;66.70;;;;;;5009536;28;20239;-72
2022/05/21 08:14:32;;;;;;;4.50;1.48;;;18.80;67.40;;;;;;5009010;28;20614;-71
2022/05/21 08:16:58;;;;;;;1.40;1.27;;;18.90;67.80;;;;;;5008865;28;20207;-72
2022/05/21 08:19:24;;;;;;;1.30;1.20;;;19.00;67.70;;;;;;5010391;28;20261;-71
2022/05/21 08:21:49;;;;;;;1.10;1.00;;;19.10;67.70;;;;;;5029056;28;20603;-71
2022/05/21 08:27:01;;;;;;;1.85;1.30;;;19.30;66.30;;;;;;5014567;28;20195;-70
2022/05/21 08:29:33;;;;;;;4.82;1.27;;;19.40;66.40;;;;;;5015710;28;20177;-71
2022/05/21 08:32:00;;;;;;;1.00;1.00;;;19.50;66.50;;;;;;5011296;28;20266;-71
2022/05/21 08:34:27;;;;;;;1.30;1.25;;;19.60;66.70;;;;;;5015267;28;20235;-71
2022/05/21 08:36:53;;;;;;;3.28;1.10;;;19.70;66.60;;;;;;5011482;28;20855;-72
2022/05/21 08:39:20;;;;;;;1.70;1.20;;;19.80;66.20;;;;;;5017909;28;20172;-71
2022/05/21 08:41:56;;;;;;;5.30;1.58;;;19.90;66.80;;;;;;5010877;28;20466;-70
2022/05/21 08:44:42;;;;;;;6.75;1.85;;;20.10;64.90;;;;;;5045693;28;20201;-70
2022/05/21 08:47:21;;;;;;;1.65;1.55;;;20.20;65.40;;;;;;5013217;28;20188;-70
2022/05/21 08:49:59;;;;;;;4.22;1.20;;;20.30;65.40;;;;;;5015841;28;20184;-70
2022/05/21 08:52:35;;;;;;;1.30;1.30;;;20.50;64.70;;;;;;5014940;28;20219;-71
2022/05/21 08:55:05;;;;;;;2.13;1.33;;;20.60;65.20;;;;;;5015772;28;20185;-71
2022/05/21 08:58:00;;;;;;;3.20;1.38;;;20.80;64.40;;;;;;5015623;28;20228;-70
2022/05/21 09:00:46;;;;;;;1.88;1.55;;;20.90;65.40;;;;;;5012323;28;20204;-70
2022/05/21 09:03:17;;;;;;;7.13;1.60;;;21.10;64.60;;;;;;5012386;28;20184;-72
2022/05/21 09:06:17;;;;;;;1.80;1.70;;;21.30;64.50;;;;;;5014125;28;20193;-72
2022/05/21 09:08:43;;;;;;;1.38;1.13;;;;;;;;;;4931890;29;20198;-69
2022/05/21 09:11:14;;;;;;;1.38;1.27;;;21.60;63.70;;;;;;4934807;29;20199;-71
2022/05/21 09:14:03;;;;;;;1.45;1.33;;;21.80;63.10;;;;;;4932152;29;20196;-72
2022/05/21 09:16:56;;;;;;;1.90;1.48;;;22.00;62.70;;;;;;4932351;29;20203;-73
2022/05/21 09:19:37;;;;;;;0.93;0.90;;;22.20;63.00;;;;;;4918708;29;20479;-70
2022/05/21 09:22:05;;;;;;;2.08;1.30;;;22.40;61.30;;;;;;4927384;29;20227;-70
2022/05/21 09:24:51;;;;;;;2.20;1.02;;;22.50;61.50;;;;;;4930511;29;20783;-70
2022/05/21 09:27:38;;;;;;;1.55;1.45;;;22.70;60.10;;;;;;4931596;29;20677;-71
2022/05/21 09:30:13;;;;;;;1.10;1.10;;;22.90;60.90;;;;;;4935668;29;20692;-70
2022/05/21 09:32:42;;;;;;;1.17;0.90;;;23.10;57.00;;;;;;4933650;29;20203;-71
2022/05/21 09:35:19;;;;;;;1.02;0.93;;;23.30;58.40;;;;;;4929518;29;20191;-70
2022/05/21 09:37:45;;;;;;;2.53;1.15;;;23.50;59.50;;;;;;4935660;29;20354;-74
2022/05/21 09:40:34;;;;;;;2.63;0.95;;;23.70;58.90;;;;;;4936046;29;20958;-73
2022/05/21 09:46:26;;;;;;;1.13;1.05;;;24.20;57.60;;;;;;4985761;28;20610;-72
2022/05/21 09:48:55;;;;;;;2.38;1.17;;;24.40;55.70;;;;;;5011511;28;20573;-73
2022/05/21 09:51:22;;;;;;;0.85;0.85;;;24.70;54.00;;;;;;5014487;28;20215;-73
2022/05/21 09:53:48;;;;;;;3.72;1.00;;;24.90;52.10;;;;;;5011948;28;20188;-73
2022/05/21 09:56:22;;;;;;;0.77;0.77;;;25.20;52.10;;;;;;5011639;28;20179;-74
2022/05/21 09:59:09;;;;;;;1.20;0.70;;;25.40;52.90;;;;;;5006638;28;20188;-72
2022/05/21 10:01:49;;;;;;;2.72;0.93;;;25.70;53.40;;;;;;5010437;28;20575;-73
2022/05/21 10:04:43;;;;;;;1.77;0.85;;;25.90;53.20;;;;;;5009074;28;20997;-73
2022/05/21 10:10:58;;;;;;;1.63;0.90;;;26.30;52.10;;;;;;5008472;28;21466;-73
2022/05/21 10:12:47;;;;;;;3.38;0.80;;;27.30;50.80;;;;;;5008576;28;20242;-73
2022/05/21 10:15:26;;;;;;;0.43;0.43;;;27.90;49.50;;;;;;5008948;28;20180;-71
2022/05/21 10:18:03;;;;;;;0.68;0.68;;;28.40;49.20;;;;;;5009552;28;20646;-72
2022/05/21 10:20:41;;;;;;;0.60;0.60;;;28.90;48.20;;;;;;5010288;28;20267;-72
2022/05/21 10:23:23;;;;;;;0.70;0.70;;;29.40;48.30;;;;;;5007540;28;20212;-73
2022/05/21 10:25:49;;;;;;;0.50;0.50;;;;;;;;;;5008337;28;20258;-73
2022/05/21 10:28:45;;;;;;;1.65;0.90;;;30.30;48.20;;;;;;5012755;28;20664;-72
2022/05/21 10:31:36;;;;;;;0.70;0.70;;;31.00;46.80;;;;;;5009223;28;20560;-73
2022/05/21 10:34:03;;;;;;;3.28;0.77;;;;;;;;;;5023709;28;20191;-73
2022/05/21 10:36:44;;;;;;;0.57;0.57;;;32.20;45.60;;;;;;5005474;28;20212;-74
2022/05/21 10:39:26;;;;;;;2.60;1.10;;;32.60;45.10;;;;;;5006696;28;20188;-73
2022/05/21 10:42:05;;;;;;;4.32;0.73;;;33.40;43.40;;;;;;5004417;28;20244;-74
2022/05/21 10:45:09;;;;;;;0.73;0.65;;;33.60;43.90;;;;;;5010006;28;20184;-73
2022/05/21 10:47:43;;;;;;;0.60;0.60;;;33.90;43.10;;;;;;5006270;28;20401;-72
2022/05/21 10:50:24;;;;;;;1.40;0.52;;;34.30;42.10;;;;;;5003301;28;20184;-73
2022/05/21 10:53:29;;;;;;;0.55;0.55;;;34.50;42.40;;;;;;5003054;28;20183;-72
2022/05/21 10:55:55;;;;;;;0.60;0.60;;;;;;;;;;4984206;28;20200;-73
2022/05/21 10:58:22;;;;;;;1.85;0.90;;;;;;;;;;4983470;28;20211;-73
2022/05/21 11:01:10;;;;;;;2.05;0.73;;;35.30;41.30;;;;;;4983533;28;20224;-73
2022/05/21 11:04:07;;;;;;;0.40;0.40;;;35.70;41.60;;;;;;4985773;28;20296;-73
2022/05/21 11:06:48;;;;;;;3.05;0.70;;;36.10;41.00;;;;;;4985431;28;20201;-73
2022/05/21 11:09:38;;;;;;;0.55;0.50;;;36.60;41.10;;;;;;4983223;28;20188;-72
2022/05/21 11:12:13;;;;;;;1.00;0.70;;;36.90;39.90;;;;;;4988439;28;20255;-72
2022/05/21 11:14:43;;;;;;;0.57;0.57;;;37.20;39.60;;;;;;4980358;28;21219;-72
2022/05/21 11:17:39;;;;;;;0.70;0.70;;;37.30;39.80;;;;;;4984417;28;20209;-72
2022/05/21 11:20:26;;;;;;;0.60;0.60;;;37.60;39.50;;;;;;4979983;28;20200;-72
2022/05/21 11:23:04;;;;;;;0.47;0.40;;;38.00;37.60;;;;;;4985246;28;20227;-73
2022/05/21 11:25:52;;;;;;;0.40;0.40;;;38.10;37.80;;;;;;4986274;28;20884;-71
2022/05/21 11:28:46;;;;;;;0.50;0.50;;;38.30;39.40;;;;;;4983791;28;20227;-75
2022/05/21 11:37:19;;;;;;;0.60;0.60;;;38.40;39.00;;;;;;4987420;28;20471;-72
2022/05/21 11:39:39;;;;;;;3.30;0.68;;;;;;;;;;5007333;28;20258;-71
2022/05/21 11:42:12;;;;;;;0.50;0.50;;;39.40;38.50;;;;;;5010773;28;20215;-72
2022/05/21 11:45:02;;;;;;;0.50;0.50;;;39.70;38.00;;;;;;5007938;28;20188;-72
2022/05/21 11:47:28;;;;;;;1.92;0.60;;;;;;;;;;5008271;28;20267;-71
2022/05/21 11:50:11;;;;;;;0.60;0.60;;;40.00;38.00;;;;;;5011675;28;20215;-70
2022/05/21 11:52:37;;;;;;;0.70;0.70;;;;;;;;;;5006772;28;20194;-71
2022/05/21 11:55:11;;;;;;;0.70;0.70;;;40.50;38.30;;;;;;5010878;28;20184;-72
2022/05/21 11:57:50;;;;;;;0.95;0.50;;;40.90;36.80;;;;;;5007186;28;20267;-71
2022/05/21 12:00:16;;;;;;;0.82;0.73;;;;;;;;;;5008483;28;20787;-74
2022/05/21 12:02:54;;;;;;;0.43;0.43;;;40.90;36.00;;;;;;5009478;28;20192;-73
2022/05/21 12:05:35;;;;;;;2.65;0.60;;;41.00;38.70;;;;;;5009403;28;20184;-73
2022/05/21 12:08:23;;;;;;;0.50;0.50;;;41.00;36.10;;;;;;5011152;28;20185;-73
2022/05/21 12:10:58;;;;;;;0.65;0.65;;;41.00;35.90;;;;;;5015775;28;20203;-74
2022/05/21 12:13:35;;;;;;;0.73;0.73;;;40.90;35.90;;;;;;5014492;28;20245;-74
2022/05/21 12:16:16;;;;;;;1.75;0.65;;;40.80;36.60;;;;;;5019065;28;20739;-72
2022/05/21 12:18:42;;;;;;;1.05;0.77;;;;;;;;;;5016757;28;20203;-73
2022/05/21 12:21:27;;;;;;;0.50;0.50;;;41.40;38.00;;;;;;5013697;28;20215;-73
2022/05/21 12:23:58;;;;;;;0.60;0.60;;;41.60;36.50;;;;;;5010331;28;20214;-73
2022/05/21 12:26:30;;;;;;;0.70;0.70;;;41.80;37.00;;;;;;5017040;28;20697;-74
2022/05/21 12:29:09;;;;;;;1.80;0.50;;;41.90;36.70;;;;;;5024748;28;20180;-73
2022/05/21 12:31:59;;;;;;;1.17;0.63;;;42.30;36.10;;;;;;5015577;28;20570;-73
2022/05/21 12:34:40;;;;;;;0.50;0.50;;;42.30;36.30;;;;;;5025826;28;20188;-74
2022/05/21 12:37:09;;;;;;;0.40;0.40;;;42.60;36.10;;;;;;5017459;28;20179;-73
2022/05/21 12:40:09;;;;;;;0.82;0.75;;;42.90;35.60;;;;;;5012648;28;20179;-74
2022/05/21 12:42:45;;;;;;;1.58;0.70;;;43.40;36.10;;;;;;5015194;28;20266;-74
2022/05/21 12:45:44;;;;;;;1.75;0.68;;;43.80;34.90;;;;;;5012851;28;20622;-74
2022/05/21 12:48:31;;;;;;;0.57;0.57;;;44.20;35.40;;;;;;5014634;28;20184;-74
2022/05/21 12:51:03;;;;;;;0.50;0.50;;;44.30;35.60;;;;;;5045639;28;20184;-74
2022/05/21 12:53:46;;;;;;;2.05;0.70;;;44.10;35.30;;;;;;5014216;28;20259;-74
2022/05/21 12:56:33;;;;;;;0.77;0.50;;;44.00;35.30;;;;;;5026912;28;20203;-74
2022/05/21 12:59:29;;;;;;;0.77;0.60;;;44.00;34.30;;;;;;5048805;28;20282;-74
2022/05/21 13:01:58;;;;;;;0.50;0.45;;;44.00;35.50;;;;;;5014106;28;20215;-74
2022/05/21 13:04:24;;;;;;;0.70;0.70;;;43.80;35.60;;;;;;5012836;28;20697;-74
2022/05/21 13:06:54;;;;;;;0.63;0.63;;;43.50;34.30;;;;;;5014286;28;20637;-74
2022/05/21 13:09:20;;;;;;;1.25;0.40;;;43.30;35.30;;;;;;5014913;28;20187;-74
2022/05/21 13:11:47;;;;;;;0.60;0.60;;;43.20;35.80;;;;;;5041729;28;20215;-75
2022/05/21 13:14:21;;;;;;;0.57;0.57;;;43.30;36.30;;;;;;5011913;28;20677;-75
2022/05/21 13:16:52;;;;;;;1.70;0.80;;;43.30;36.50;;;;;;5043431;28;20191;-74
2022/05/21 13:19:20;;;;;;;0.77;0.77;;;43.50;35.40;;;;;;5012238;28;20265;-75
2022/05/21 13:21:55;;;;;;;0.70;0.70;;;43.80;36.60;;;;;;5014455;28;20274;-75
2022/05/21 13:24:53;;;;;;;0.90;0.90;;;44.00;35.60;;;;;;5014108;28;20187;-74
2022/05/21 13:27:22;;;;;;;0.70;0.70;;;44.30;35.30;;;;;;4948942;28;20728;-74
2022/05/21 13:29:50;;;;;;;1.25;0.73;;;44.40;35.00;;;;;;4947248;28;20191;-74
2022/05/21 13:32:33;;;;;;;0.80;0.60;;;44.50;35.00;;;;;;4946917;28;20202;-74
2022/05/21 13:35:04;;;;;;;0.75;0.75;;;44.80;34.90;;;;;;4952503;28;20293;-74
2022/05/21 13:37:38;;;;;;;0.77;0.63;;;45.00;37.10;;;;;;4951383;28;20193;-74
2022/05/21 13:40:12;;;;;;;0.73;0.73;;;45.10;34.20;;;;;;4948271;28;20198;-74
2022/05/21 13:42:41;;;;;;;1.20;0.70;;;44.60;34.40;;;;;;4951721;28;20230;-74
2022/05/21 13:45:25;;;;;;;1.30;0.50;;;44.00;35.80;;;;;;4949101;28;20194;-74
2022/05/21 13:48:09;;;;;;;0.60;0.60;;;43.20;35.90;;;;;;4945631;28;20250;-73
2022/05/21 13:50:36;;;;;;;0.68;0.68;;;42.50;36.50;;;;;;4951244;28;20198;-73